sensor_id;sensor_type;location;lat;lon;timestamp;temperature;humidity
3504;DHT22;1766;53.490;10.174;2022-11-15T00:01:16;13.00;47.90
3504;DHT22;1766;53.490;10.174;2022-11-15T00:03:22;13.00;47.90
3504;DHT22;1766;53.490;10.174;2022-11-15T00:05:26;13.00;47.90
3504;DHT22;1766;53.490;10.174;2022-11-15T00:07:28;13.00;47.90
3504;DHT22;1766;53.490;10.174;2022-11-15T00:09:30;13.00;48.00
3504;DHT22;1766;53.490;10.174;2022-11-15T00:11:31;12.90;48.10
3504;DHT22;1766;53.490;10.174;2022-11-15T00:13:33;13.00;48.20
3504;DHT22;1766;53.490;10.174;2022-11-15T00:15:35;13.00;48.30
3504;DHT22;1766;53.490;10.174;2022-11-15T00:17:37;13.00;48.30
3504;DHT22;1766;53.490;10.174;2022-11-15T00:19:39;13.00;48.20
3504;DHT22;1766;53.490;10.174;2022-11-15T00:21:42;13.10;48.20
3504;DHT22;1766;53.490;10.174;2022-11-15T00:23:44;13.00;48.30
3504;DHT22;1766;53.490;10.174;2022-11-15T00:25:45;13.00;48.30
3504;DHT22;1766;53.490;10.174;2022-11-15T00:27:47;13.10;48.50
3504;DHT22;1766;53.490;10.174;2022-11-15T00:29:49;13.00;48.50
3504;DHT22;1766;53.490;10.174;2022-11-15T00:31:51;13.00;48.50
3504;DHT22;1766;53.490;10.174;2022-11-15T00:33:53;13.10;48.70
3504;DHT22;1766;53.490;10.174;2022-11-15T00:35:59;13.10;48.60
3504;DHT22;1766;53.490;10.174;2022-11-15T00:38:03;13.10;48.70
3504;DHT22;1766;53.490;10.174;2022-11-15T00:40:06;13.10;48.50
3504;DHT22;1766;53.490;10.174;2022-11-15T00:42:08;13.10;48.60
3504;DHT22;1766;53.490;10.174;2022-11-15T00:44:10;13.10;48.50
3504;DHT22;1766;53.490;10.174;2022-11-15T00:46:12;13.10;48.60
3504;DHT22;1766;53.490;10.174;2022-11-15T00:48:25;13.00;48.50
3504;DHT22;1766;53.490;10.174;2022-11-15T00:50:27;13.10;48.60
3504;DHT22;1766;53.490;10.174;2022-11-15T00:52:29;13.10;48.80
3504;DHT22;1766;53.490;10.174;2022-11-15T00:54:32;13.10;48.90
3504;DHT22;1766;53.490;10.174;2022-11-15T00:56:34;13.00;48.90
3504;DHT22;1766;53.490;10.174;2022-11-15T00:58:35;13.10;49.10
3504;DHT22;1766;53.490;10.174;2022-11-15T01:00:37;13.20;49.20
3504;DHT22;1766;53.490;10.174;2022-11-15T01:02:39;13.20;49.30
3504;DHT22;1766;53.490;10.174;2022-11-15T01:04:41;13.20;49.40
3504;DHT22;1766;53.490;10.174;2022-11-15T01:06:42;13.30;49.50
3504;DHT22;1766;53.490;10.174;2022-11-15T01:08:44;13.30;49.50
3504;DHT22;1766;53.490;10.174;2022-11-15T01:10:47;13.30;49.50
3504;DHT22;1766;53.490;10.174;2022-11-15T01:12:49;13.30;49.50
3504;DHT22;1766;53.490;10.174;2022-11-15T01:14:51;13.30;50.00
3504;DHT22;1766;53.490;10.174;2022-11-15T01:16:53;13.30;49.50
3504;DHT22;1766;53.490;10.174;2022-11-15T01:18:55;13.30;49.40
3504;DHT22;1766;53.490;10.174;2022-11-15T01:20:56;13.30;49.20
3504;DHT22;1766;53.490;10.174;2022-11-15T01:22:58;13.30;49.10
3504;DHT22;1766;53.490;10.174;2022-11-15T01:25:00;13.20;48.80
3504;DHT22;1766;53.490;10.174;2022-11-15T01:27:03;13.20;48.80
3504;DHT22;1766;53.490;10.174;2022-11-15T01:29:05;13.20;48.70
3504;DHT22;1766;53.490;10.174;2022-11-15T01:31:12;13.20;48.60
3504;DHT22;1766;53.490;10.174;2022-11-15T01:33:14;13.10;48.50
3504;DHT22;1766;53.490;10.174;2022-11-15T01:35:16;13.10;48.30
3504;DHT22;1766;53.490;10.174;2022-11-15T01:37:18;13.10;48.20
3504;DHT22;1766;53.490;10.174;2022-11-15T01:39:19;13.10;48.20
3504;DHT22;1766;53.490;10.174;2022-11-15T01:41:24;13.00;48.00
3504;DHT22;1766;53.490;10.174;2022-11-15T01:43:30;13.10;48.20
3504;DHT22;1766;53.490;10.174;2022-11-15T01:45:33;13.00;48.20
3504;DHT22;1766;53.490;10.174;2022-11-15T01:47:37;13.00;48.00
3504;DHT22;1766;53.490;10.174;2022-11-15T01:49:47;12.90;48.00
3504;DHT22;1766;53.490;10.174;2022-11-15T01:51:52;12.90;48.10
3504;DHT22;1766;53.490;10.174;2022-11-15T01:53:57;12.90;48.10
3504;DHT22;1766;53.490;10.174;2022-11-15T01:56:04;12.80;47.90
3504;DHT22;1766;53.490;10.174;2022-11-15T01:58:08;12.80;47.90
3504;DHT22;1766;53.490;10.174;2022-11-15T02:00:12;12.80;47.80
3504;DHT22;1766;53.490;10.174;2022-11-15T02:02:15;12.80;47.90
3504;DHT22;1766;53.490;10.174;2022-11-15T02:04:21;12.70;47.70
3504;DHT22;1766;53.490;10.174;2022-11-15T02:06:25;12.70;47.80
3504;DHT22;1766;53.490;10.174;2022-11-15T02:08:27;12.70;47.70
3504;DHT22;1766;53.490;10.174;2022-11-15T02:10:29;12.70;47.70
3504;DHT22;1766;53.490;10.174;2022-11-15T02:12:31;12.70;48.10
3504;DHT22;1766;53.490;10.174;2022-11-15T02:14:33;12.70;47.60
3504;DHT22;1766;53.490;10.174;2022-11-15T02:16:45;12.50;47.80
3504;DHT22;1766;53.490;10.174;2022-11-15T02:18:54;12.50;47.70
3504;DHT22;1766;53.490;10.174;2022-11-15T02:21:12;12.60;47.70
3504;DHT22;1766;53.490;10.174;2022-11-15T02:23:41;12.60;47.80
3504;DHT22;1766;53.490;10.174;2022-11-15T02:26:19;12.50;47.70
3504;DHT22;1766;53.490;10.174;2022-11-15T02:28:48;12.50;47.70
3504;DHT22;1766;53.490;10.174;2022-11-15T02:31:00;12.50;47.90
3504;DHT22;1766;53.490;10.174;2022-11-15T02:33:15;12.50;47.90
3504;DHT22;1766;53.490;10.174;2022-11-15T02:35:29;12.40;48.00
3504;DHT22;1766;53.490;10.174;2022-11-15T02:37:42;12.50;48.00
3504;DHT22;1766;53.490;10.174;2022-11-15T02:39:50;12.50;48.00
3504;DHT22;1766;53.490;10.174;2022-11-15T02:41:57;12.50;48.00
3504;DHT22;1766;53.490;10.174;2022-11-15T02:44:08;12.40;47.80
3504;DHT22;1766;53.490;10.174;2022-11-15T02:46:18;12.40;47.80
3504;DHT22;1766;53.490;10.174;2022-11-15T02:48:34;12.40;47.70
3504;DHT22;1766;53.490;10.174;2022-11-15T02:50:37;12.40;47.70
3504;DHT22;1766;53.490;10.174;2022-11-15T02:52:39;12.40;47.60
3504;DHT22;1766;53.490;10.174;2022-11-15T02:54:40;12.40;47.60
3504;DHT22;1766;53.490;10.174;2022-11-15T02:56:43;12.40;47.60
3504;DHT22;1766;53.490;10.174;2022-11-15T02:59:00;12.30;47.70
3504;DHT22;1766;53.490;10.174;2022-11-15T03:01:16;12.30;47.80
3504;DHT22;1766;53.490;10.174;2022-11-15T03:03:45;12.30;47.60
3504;DHT22;1766;53.490;10.174;2022-11-15T03:05:55;12.30;47.60
3504;DHT22;1766;53.490;10.174;2022-11-15T03:08:04;12.30;47.60
3504;DHT22;1766;53.490;10.174;2022-11-15T03:10:12;12.30;47.60
3504;DHT22;1766;53.490;10.174;2022-11-15T03:12:24;12.30;47.70
3504;DHT22;1766;53.490;10.174;2022-11-15T03:14:31;12.30;47.70
3504;DHT22;1766;53.490;10.174;2022-11-15T03:16:40;12.30;47.80
3504;DHT22;1766;53.490;10.174;2022-11-15T03:18:49;12.20;47.70
3504;DHT22;1766;53.490;10.174;2022-11-15T03:20:55;12.20;47.70
3504;DHT22;1766;53.490;10.174;2022-11-15T03:23:03;12.20;47.80
3504;DHT22;1766;53.490;10.174;2022-11-15T03:25:09;12.20;47.80
3504;DHT22;1766;53.490;10.174;2022-11-15T03:27:14;12.20;47.80
3504;DHT22;1766;53.490;10.174;2022-11-15T03:29:22;12.20;47.80
3504;DHT22;1766;53.490;10.174;2022-11-15T03:31:28;12.20;47.70
3504;DHT22;1766;53.490;10.174;2022-11-15T03:33:49;12.20;47.80
3504;DHT22;1766;53.490;10.174;2022-11-15T03:35:53;12.20;47.70
3504;DHT22;1766;53.490;10.174;2022-11-15T03:37:59;12.10;47.60
3504;DHT22;1766;53.490;10.174;2022-11-15T03:40:05;12.10;47.70
3504;DHT22;1766;53.490;10.174;2022-11-15T03:42:15;12.20;47.90
3504;DHT22;1766;53.490;10.174;2022-11-15T03:44:31;12.10;47.90
3504;DHT22;1766;53.490;10.174;2022-11-15T03:46:40;12.10;47.90
3504;DHT22;1766;53.490;10.174;2022-11-15T03:48:50;12.10;47.70
3504;DHT22;1766;53.490;10.174;2022-11-15T03:50:55;12.10;47.90
3504;DHT22;1766;53.490;10.174;2022-11-15T03:52:57;12.10;47.80
3504;DHT22;1766;53.490;10.174;2022-11-15T03:55:01;12.10;48.00
3504;DHT22;1766;53.490;10.174;2022-11-15T03:57:04;12.10;48.00
3504;DHT22;1766;53.490;10.174;2022-11-15T03:59:06;12.10;47.90
3504;DHT22;1766;53.490;10.174;2022-11-15T04:01:08;12.10;47.90
3504;DHT22;1766;53.490;10.174;2022-11-15T04:03:20;12.10;47.90
3504;DHT22;1766;53.490;10.174;2022-11-15T04:05:23;12.10;47.90
3504;DHT22;1766;53.490;10.174;2022-11-15T04:07:25;12.10;48.00
3504;DHT22;1766;53.490;10.174;2022-11-15T04:09:27;12.20;47.90
3504;DHT22;1766;53.490;10.174;2022-11-15T04:11:29;12.10;48.00
3504;DHT22;1766;53.490;10.174;2022-11-15T04:13:30;12.10;48.00
3504;DHT22;1766;53.490;10.174;2022-11-15T04:15:33;12.10;48.00
3504;DHT22;1766;53.490;10.174;2022-11-15T04:17:36;12.10;48.20
3504;DHT22;1766;53.490;10.174;2022-11-15T04:19:39;12.10;48.30
3504;DHT22;1766;53.490;10.174;2022-11-15T04:21:57;12.10;48.30
3504;DHT22;1766;53.490;10.174;2022-11-15T04:24:12;12.10;48.30
3504;DHT22;1766;53.490;10.174;2022-11-15T04:26:16;12.10;48.30
3504;DHT22;1766;53.490;10.174;2022-11-15T04:28:20;12.20;48.50
3504;DHT22;1766;53.490;10.174;2022-11-15T04:30:21;12.20;48.50
3504;DHT22;1766;53.490;10.174;2022-11-15T04:32:22;12.20;48.50
3504;DHT22;1766;53.490;10.174;2022-11-15T04:34:24;12.20;48.60
3504;DHT22;1766;53.490;10.174;2022-11-15T04:36:26;12.20;48.70
3504;DHT22;1766;53.490;10.174;2022-11-15T04:38:43;12.20;48.90
3504;DHT22;1766;53.490;10.174;2022-11-15T04:40:44;12.20;49.00
3504;DHT22;1766;53.490;10.174;2022-11-15T04:42:46;12.30;49.20
3504;DHT22;1766;53.490;10.174;2022-11-15T04:44:48;12.30;49.40
3504;DHT22;1766;53.490;10.174;2022-11-15T04:46:50;12.40;49.50
3504;DHT22;1766;53.490;10.174;2022-11-15T04:48:52;12.50;49.70
3504;DHT22;1766;53.490;10.174;2022-11-15T04:50:54;12.50;49.90
3504;DHT22;1766;53.490;10.174;2022-11-15T04:52:56;12.60;49.90
3504;DHT22;1766;53.490;10.174;2022-11-15T04:54:59;12.60;50.00
3504;DHT22;1766;53.490;10.174;2022-11-15T04:57:01;12.70;50.10
3504;DHT22;1766;53.490;10.174;2022-11-15T04:59:03;12.80;50.20
3504;DHT22;1766;53.490;10.174;2022-11-15T05:01:07;12.80;50.10
3504;DHT22;1766;53.490;10.174;2022-11-15T05:03:09;12.80;50.30
3504;DHT22;1766;53.490;10.174;2022-11-15T05:05:25;13.10;50.60
3504;DHT22;1766;53.490;10.174;2022-11-15T05:07:27;13.00;50.40
3504;DHT22;1766;53.490;10.174;2022-11-15T05:09:28;13.10;50.50
3504;DHT22;1766;53.490;10.174;2022-11-15T05:11:32;13.10;50.60
3504;DHT22;1766;53.490;10.174;2022-11-15T05:13:33;13.10;50.70
3504;DHT22;1766;53.490;10.174;2022-11-15T05:15:35;13.10;50.70
3504;DHT22;1766;53.490;10.174;2022-11-15T05:17:37;13.20;50.80
3504;DHT22;1766;53.490;10.174;2022-11-15T05:19:39;13.30;51.00
3504;DHT22;1766;53.490;10.174;2022-11-15T05:21:40;13.40;51.10
3504;DHT22;1766;53.490;10.174;2022-11-15T05:23:42;13.40;51.20
3504;DHT22;1766;53.490;10.174;2022-11-15T05:25:44;13.40;51.30
3504;DHT22;1766;53.490;10.174;2022-11-15T05:27:47;13.50;51.50
3504;DHT22;1766;53.490;10.174;2022-11-15T05:29:49;13.50;51.70
3504;DHT22;1766;53.490;10.174;2022-11-15T05:31:50;13.60;51.70
3504;DHT22;1766;53.490;10.174;2022-11-15T05:33:54;13.60;51.60
3504;DHT22;1766;53.490;10.174;2022-11-15T05:36:02;13.70;51.80
3504;DHT22;1766;53.490;10.174;2022-11-15T05:38:05;13.70;51.70
3504;DHT22;1766;53.490;10.174;2022-11-15T05:40:08;13.70;51.50
3504;DHT22;1766;53.490;10.174;2022-11-15T05:42:12;13.70;51.60
3504;DHT22;1766;53.490;10.174;2022-11-15T05:44:18;13.70;51.70
3504;DHT22;1766;53.490;10.174;2022-11-15T05:46:22;13.80;51.60
3504;DHT22;1766;53.490;10.174;2022-11-15T05:48:24;13.80;51.50
3504;DHT22;1766;53.490;10.174;2022-11-15T05:50:27;13.80;51.60
3504;DHT22;1766;53.490;10.174;2022-11-15T05:52:31;13.80;51.70
3504;DHT22;1766;53.490;10.174;2022-11-15T05:54:36;13.80;51.60
3504;DHT22;1766;53.490;10.174;2022-11-15T05:56:39;13.90;51.70
3504;DHT22;1766;53.490;10.174;2022-11-15T05:58:41;13.80;51.40
3504;DHT22;1766;53.490;10.174;2022-11-15T06:00:45;13.80;51.60
3504;DHT22;1766;53.490;10.174;2022-11-15T06:02:51;13.80;51.60
3504;DHT22;1766;53.490;10.174;2022-11-15T06:04:53;13.90;51.50
3504;DHT22;1766;53.490;10.174;2022-11-15T06:06:55;13.80;51.40
3504;DHT22;1766;53.490;10.174;2022-11-15T06:08:57;14.00;51.60
3504;DHT22;1766;53.490;10.174;2022-11-15T06:11:03;13.90;51.60
3504;DHT22;1766;53.490;10.174;2022-11-15T06:13:05;13.90;51.80
3504;DHT22;1766;53.490;10.174;2022-11-15T06:15:08;13.90;51.60
3504;DHT22;1766;53.490;10.174;2022-11-15T06:17:11;14.00;51.80
3504;DHT22;1766;53.490;10.174;2022-11-15T06:19:13;14.00;51.80
3504;DHT22;1766;53.490;10.174;2022-11-15T06:21:15;14.00;51.80
3504;DHT22;1766;53.490;10.174;2022-11-15T06:23:16;14.10;52.40
3504;DHT22;1766;53.490;10.174;2022-11-15T06:25:18;14.00;51.70
3504;DHT22;1766;53.490;10.174;2022-11-15T06:27:20;14.00;51.70
3504;DHT22;1766;53.490;10.174;2022-11-15T06:29:22;14.10;51.60
3504;DHT22;1766;53.490;10.174;2022-11-15T06:31:24;14.00;51.70
3504;DHT22;1766;53.490;10.174;2022-11-15T06:33:27;14.10;51.70
3504;DHT22;1766;53.490;10.174;2022-11-15T06:35:30;14.10;51.70
3504;DHT22;1766;53.490;10.174;2022-11-15T06:37:34;14.10;51.90
3504;DHT22;1766;53.490;10.174;2022-11-15T06:39:35;14.10;51.70
3504;DHT22;1766;53.490;10.174;2022-11-15T06:41:37;14.10;51.60
3504;DHT22;1766;53.490;10.174;2022-11-15T06:43:39;14.10;51.70
3504;DHT22;1766;53.490;10.174;2022-11-15T06:45:41;14.10;51.90
3504;DHT22;1766;53.490;10.174;2022-11-15T06:47:44;14.10;51.70
3504;DHT22;1766;53.490;10.174;2022-11-15T06:49:48;14.10;51.90
3504;DHT22;1766;53.490;10.174;2022-11-15T06:51:50;14.10;51.70
3504;DHT22;1766;53.490;10.174;2022-11-15T06:53:52;14.10;51.60
3504;DHT22;1766;53.490;10.174;2022-11-15T06:55:56;14.20;51.70
3504;DHT22;1766;53.490;10.174;2022-11-15T06:58:00;14.20;51.90
3504;DHT22;1766;53.490;10.174;2022-11-15T07:00:03;14.20;51.70
3504;DHT22;1766;53.490;10.174;2022-11-15T07:02:05;14.20;51.90
3504;DHT22;1766;53.490;10.174;2022-11-15T07:04:07;14.20;51.70
3504;DHT22;1766;53.490;10.174;2022-11-15T07:06:10;14.20;51.70
3504;DHT22;1766;53.490;10.174;2022-11-15T07:08:12;14.20;51.70
3504;DHT22;1766;53.490;10.174;2022-11-15T07:10:14;14.20;51.70
3504;DHT22;1766;53.490;10.174;2022-11-15T07:12:16;14.30;51.70
3504;DHT22;1766;53.490;10.174;2022-11-15T07:14:18;14.30;51.70
3504;DHT22;1766;53.490;10.174;2022-11-15T07:16:20;14.40;51.80
3504;DHT22;1766;53.490;10.174;2022-11-15T07:18:21;14.30;51.70
3504;DHT22;1766;53.490;10.174;2022-11-15T07:20:23;14.30;51.70
3504;DHT22;1766;53.490;10.174;2022-11-15T07:22:26;14.30;51.70
3504;DHT22;1766;53.490;10.174;2022-11-15T07:24:28;14.30;51.70
3504;DHT22;1766;53.490;10.174;2022-11-15T07:26:30;14.30;51.60
3504;DHT22;1766;53.490;10.174;2022-11-15T07:28:32;14.40;51.60
3504;DHT22;1766;53.490;10.174;2022-11-15T07:30:33;14.30;51.60
3504;DHT22;1766;53.490;10.174;2022-11-15T07:32:35;14.40;51.70
3504;DHT22;1766;53.490;10.174;2022-11-15T07:34:37;14.40;51.70
3504;DHT22;1766;53.490;10.174;2022-11-15T07:36:39;14.40;51.70
3504;DHT22;1766;53.490;10.174;2022-11-15T07:38:42;14.50;51.90
3504;DHT22;1766;53.490;10.174;2022-11-15T07:40:44;14.50;51.80
3504;DHT22;1766;53.490;10.174;2022-11-15T07:42:45;14.60;52.00
3504;DHT22;1766;53.490;10.174;2022-11-15T07:44:54;14.50;51.80
3504;DHT22;1766;53.490;10.174;2022-11-15T07:46:56;14.70;51.90
3504;DHT22;1766;53.490;10.174;2022-11-15T07:48:58;14.60;51.80
3504;DHT22;1766;53.490;10.174;2022-11-15T07:51:00;14.60;51.80
3504;DHT22;1766;53.490;10.174;2022-11-15T07:53:02;14.60;51.80
3504;DHT22;1766;53.490;10.174;2022-11-15T07:55:06;14.70;51.90
3504;DHT22;1766;53.490;10.174;2022-11-15T07:57:08;14.70;52.00
3504;DHT22;1766;53.490;10.174;2022-11-15T07:59:10;14.70;51.80
3504;DHT22;1766;53.490;10.174;2022-11-15T08:01:12;14.80;51.80
3504;DHT22;1766;53.490;10.174;2022-11-15T08:03:15;14.80;51.90
3504;DHT22;1766;53.490;10.174;2022-11-15T08:05:17;14.70;51.90
3504;DHT22;1766;53.490;10.174;2022-11-15T08:07:19;14.80;51.70
3504;DHT22;1766;53.490;10.174;2022-11-15T08:09:21;14.80;51.70
3504;DHT22;1766;53.490;10.174;2022-11-15T08:11:26;14.90;51.80
3504;DHT22;1766;53.490;10.174;2022-11-15T08:13:27;14.80;51.70
3504;DHT22;1766;53.490;10.174;2022-11-15T08:15:29;14.90;51.80
3504;DHT22;1766;53.490;10.174;2022-11-15T08:17:32;14.90;51.90
3504;DHT22;1766;53.490;10.174;2022-11-15T08:19:34;14.90;51.80
3504;DHT22;1766;53.490;10.174;2022-11-15T08:21:36;15.00;51.70
3504;DHT22;1766;53.490;10.174;2022-11-15T08:23:37;15.00;51.70
3504;DHT22;1766;53.490;10.174;2022-11-15T08:25:39;15.00;51.70
3504;DHT22;1766;53.490;10.174;2022-11-15T08:27:43;15.00;51.80
3504;DHT22;1766;53.490;10.174;2022-11-15T08:29:45;15.00;51.80
3504;DHT22;1766;53.490;10.174;2022-11-15T08:31:49;15.00;51.80
3504;DHT22;1766;53.490;10.174;2022-11-15T08:33:51;15.10;51.70
3504;DHT22;1766;53.490;10.174;2022-11-15T08:35:56;15.00;51.70
3504;DHT22;1766;53.490;10.174;2022-11-15T08:37:57;15.00;51.70
3504;DHT22;1766;53.490;10.174;2022-11-15T08:39:59;15.10;51.70
3504;DHT22;1766;53.490;10.174;2022-11-15T08:42:01;15.00;51.50
3504;DHT22;1766;53.490;10.174;2022-11-15T08:44:04;15.10;51.60
3504;DHT22;1766;53.490;10.174;2022-11-15T08:46:10;15.00;51.50
3504;DHT22;1766;53.490;10.174;2022-11-15T08:48:13;15.20;51.90
3504;DHT22;1766;53.490;10.174;2022-11-15T08:50:15;15.10;51.70
3504;DHT22;1766;53.490;10.174;2022-11-15T08:52:17;15.10;51.80
3504;DHT22;1766;53.490;10.174;2022-11-15T08:54:19;15.10;51.80
3504;DHT22;1766;53.490;10.174;2022-11-15T08:56:21;15.20;51.80
3504;DHT22;1766;53.490;10.174;2022-11-15T08:58:23;15.30;51.90
3504;DHT22;1766;53.490;10.174;2022-11-15T09:00:26;15.40;52.10
3504;DHT22;1766;53.490;10.174;2022-11-15T09:02:27;15.50;52.20
3504;DHT22;1766;53.490;10.174;2022-11-15T09:04:29;15.60;52.30
3504;DHT22;1766;53.490;10.174;2022-11-15T09:06:31;15.70;52.50
3504;DHT22;1766;53.490;10.174;2022-11-15T09:08:33;15.80;52.50
3504;DHT22;1766;53.490;10.174;2022-11-15T09:10:35;16.00;52.70
3504;DHT22;1766;53.490;10.174;2022-11-15T09:12:37;16.10;52.80
3504;DHT22;1766;53.490;10.174;2022-11-15T09:14:39;16.30;53.00
3504;DHT22;1766;53.490;10.174;2022-11-15T09:16:42;16.40;53.00
3504;DHT22;1766;53.490;10.174;2022-11-15T09:18:43;16.40;52.80
3504;DHT22;1766;53.490;10.174;2022-11-15T09:20:45;16.50;52.70
3504;DHT22;1766;53.490;10.174;2022-11-15T09:22:47;16.60;52.60
3504;DHT22;1766;53.490;10.174;2022-11-15T09:24:49;16.70;52.70
3504;DHT22;1766;53.490;10.174;2022-11-15T09:26:51;16.80;52.70
3504;DHT22;1766;53.490;10.174;2022-11-15T09:28:53;16.70;52.50
3504;DHT22;1766;53.490;10.174;2022-11-15T09:30:57;16.70;52.50
3504;DHT22;1766;53.490;10.174;2022-11-15T09:33:07;16.80;52.60
3504;DHT22;1766;53.490;10.174;2022-11-15T09:35:10;16.90;52.50
3504;DHT22;1766;53.490;10.174;2022-11-15T09:37:11;16.90;52.20
3504;DHT22;1766;53.490;10.174;2022-11-15T09:39:13;16.90;52.20
3504;DHT22;1766;53.490;10.174;2022-11-15T09:41:25;16.90;52.10
3504;DHT22;1766;53.490;10.174;2022-11-15T09:43:39;17.00;52.30
3504;DHT22;1766;53.490;10.174;2022-11-15T09:45:52;17.10;52.20
3504;DHT22;1766;53.490;10.174;2022-11-15T09:48:11;17.20;52.20
3504;DHT22;1766;53.490;10.174;2022-11-15T09:50:32;17.10;52.00
3504;DHT22;1766;53.490;10.174;2022-11-15T09:52:41;17.20;51.80
3504;DHT22;1766;53.490;10.174;2022-11-15T09:54:47;17.30;51.70
3504;DHT22;1766;53.490;10.174;2022-11-15T09:56:51;17.30;51.70
3504;DHT22;1766;53.490;10.174;2022-11-15T09:58:58;17.40;51.50
3504;DHT22;1766;53.490;10.174;2022-11-15T10:01:15;17.40;51.40
3504;DHT22;1766;53.490;10.174;2022-11-15T10:03:27;17.30;51.20
3504;DHT22;1766;53.490;10.174;2022-11-15T10:05:30;17.40;51.10
3504;DHT22;1766;53.490;10.174;2022-11-15T10:07:40;17.40;51.10
3504;DHT22;1766;53.490;10.174;2022-11-15T10:09:51;17.40;51.10
3504;DHT22;1766;53.490;10.174;2022-11-15T10:11:56;17.50;51.00
3504;DHT22;1766;53.490;10.174;2022-11-15T10:14:01;17.50;50.80
3504;DHT22;1766;53.490;10.174;2022-11-15T10:16:10;17.50;50.80
3504;DHT22;1766;53.490;10.174;2022-11-15T10:18:26;17.60;50.90
3504;DHT22;1766;53.490;10.174;2022-11-15T10:20:30;17.60;50.60
3504;DHT22;1766;53.490;10.174;2022-11-15T10:22:40;17.70;50.70
3504;DHT22;1766;53.490;10.174;2022-11-15T10:24:45;17.70;50.50
3504;DHT22;1766;53.490;10.174;2022-11-15T10:26:49;17.70;50.40
3504;DHT22;1766;53.490;10.174;2022-11-15T10:28:51;17.70;50.30
3504;DHT22;1766;53.490;10.174;2022-11-15T10:30:54;17.70;50.10
3504;DHT22;1766;53.490;10.174;2022-11-15T10:32:57;17.70;50.20
3504;DHT22;1766;53.490;10.174;2022-11-15T10:35:17;17.80;50.30
3504;DHT22;1766;53.490;10.174;2022-11-15T10:37:28;17.80;50.30
3504;DHT22;1766;53.490;10.174;2022-11-15T10:39:30;17.90;50.20
3504;DHT22;1766;53.490;10.174;2022-11-15T10:41:37;17.90;50.00
3504;DHT22;1766;53.490;10.174;2022-11-15T10:43:40;17.90;49.90
3504;DHT22;1766;53.490;10.174;2022-11-15T10:45:42;17.90;49.90
3504;DHT22;1766;53.490;10.174;2022-11-15T10:47:44;17.90;49.70
3504;DHT22;1766;53.490;10.174;2022-11-15T10:49:57;17.90;49.70
3504;DHT22;1766;53.490;10.174;2022-11-15T10:52:12;17.90;49.60
3504;DHT22;1766;53.490;10.174;2022-11-15T10:54:22;17.90;49.50
3504;DHT22;1766;53.490;10.174;2022-11-15T10:56:26;17.90;49.50
3504;DHT22;1766;53.490;10.174;2022-11-15T10:58:34;17.90;49.40
3504;DHT22;1766;53.490;10.174;2022-11-15T11:00:38;17.90;49.40
3504;DHT22;1766;53.490;10.174;2022-11-15T11:02:57;18.00;49.30
3504;DHT22;1766;53.490;10.174;2022-11-15T11:05:03;18.00;49.30
3504;DHT22;1766;53.490;10.174;2022-11-15T11:07:20;18.10;49.30
3504;DHT22;1766;53.490;10.174;2022-11-15T11:09:29;18.10;49.30
3504;DHT22;1766;53.490;10.174;2022-11-15T11:11:44;18.10;49.00
3504;DHT22;1766;53.490;10.174;2022-11-15T11:13:47;18.10;48.90
3504;DHT22;1766;53.490;10.174;2022-11-15T11:15:55;18.20;48.90
3504;DHT22;1766;53.490;10.174;2022-11-15T11:18:05;18.20;49.00
3504;DHT22;1766;53.490;10.174;2022-11-15T11:20:18;18.30;48.90
3504;DHT22;1766;53.490;10.174;2022-11-15T11:22:27;18.20;48.80
3504;DHT22;1766;53.490;10.174;2022-11-15T11:24:38;18.30;48.70
3504;DHT22;1766;53.490;10.174;2022-11-15T11:26:53;18.30;48.70
3504;DHT22;1766;53.490;10.174;2022-11-15T11:29:13;18.30;48.60
3504;DHT22;1766;53.490;10.174;2022-11-15T11:31:30;18.30;48.40
3504;DHT22;1766;53.490;10.174;2022-11-15T11:33:44;18.40;48.50
3504;DHT22;1766;53.490;10.174;2022-11-15T11:36:03;18.40;48.50
3504;DHT22;1766;53.490;10.174;2022-11-15T11:38:19;18.40;48.40
3504;DHT22;1766;53.490;10.174;2022-11-15T11:40:31;18.50;48.50
3504;DHT22;1766;53.490;10.174;2022-11-15T11:42:42;18.50;48.50
3504;DHT22;1766;53.490;10.174;2022-11-15T11:44:53;18.50;49.00
3504;DHT22;1766;53.490;10.174;2022-11-15T11:47:05;18.50;48.40
3504;DHT22;1766;53.490;10.174;2022-11-15T11:49:15;18.60;48.40
3504;DHT22;1766;53.490;10.174;2022-11-15T11:51:24;18.70;48.40
3504;DHT22;1766;53.490;10.174;2022-11-15T11:53:34;18.70;48.30
3504;DHT22;1766;53.490;10.174;2022-11-15T11:55:44;18.70;48.30
3504;DHT22;1766;53.490;10.174;2022-11-15T11:57:55;18.70;48.20
3504;DHT22;1766;53.490;10.174;2022-11-15T12:00:16;18.80;48.20
3504;DHT22;1766;53.490;10.174;2022-11-15T12:02:27;18.80;48.20
3504;DHT22;1766;53.490;10.174;2022-11-15T12:04:32;18.80;48.10
3504;DHT22;1766;53.490;10.174;2022-11-15T12:06:48;18.80;48.10
3504;DHT22;1766;53.490;10.174;2022-11-15T12:08:56;18.80;48.10
3504;DHT22;1766;53.490;10.174;2022-11-15T12:11:07;18.90;48.00
3504;DHT22;1766;53.490;10.174;2022-11-15T12:13:15;18.90;48.40
3504;DHT22;1766;53.490;10.174;2022-11-15T12:15:20;19.00;48.00
3504;DHT22;1766;53.490;10.174;2022-11-15T12:17:25;19.10;48.00
3504;DHT22;1766;53.490;10.174;2022-11-15T12:19:32;19.00;47.90
3504;DHT22;1766;53.490;10.174;2022-11-15T12:21:43;19.10;47.70
3504;DHT22;1766;53.490;10.174;2022-11-15T12:23:50;19.10;47.80
3504;DHT22;1766;53.490;10.174;2022-11-15T12:25:57;19.20;47.80
3504;DHT22;1766;53.490;10.174;2022-11-15T12:28:06;19.30;47.90
3504;DHT22;1766;53.490;10.174;2022-11-15T12:30:15;19.40;47.90
3504;DHT22;1766;53.490;10.174;2022-11-15T12:32:25;19.70;47.90
3504;DHT22;1766;53.490;10.174;2022-11-15T12:34:40;19.90;47.80
3504;DHT22;1766;53.490;10.174;2022-11-15T12:36:45;20.10;47.40
3504;DHT22;1766;53.490;10.174;2022-11-15T12:38:58;20.30;47.00
3504;DHT22;1766;53.490;10.174;2022-11-15T12:41:16;20.30;46.80
3504;DHT22;1766;53.490;10.174;2022-11-15T12:43:37;20.40;46.60
3504;DHT22;1766;53.490;10.174;2022-11-15T12:45:41;20.50;46.40
3504;DHT22;1766;53.490;10.174;2022-11-15T12:47:44;20.60;46.20
3504;DHT22;1766;53.490;10.174;2022-11-15T12:49:46;20.60;46.10
3504;DHT22;1766;53.490;10.174;2022-11-15T12:57:26;20.60;45.90
3504;DHT22;1766;53.490;10.174;2022-11-15T12:59:47;20.60;45.80
3504;DHT22;1766;53.490;10.174;2022-11-15T13:02:15;20.60;45.60
3504;DHT22;1766;53.490;10.174;2022-11-15T13:04:24;20.60;45.70
3504;DHT22;1766;53.490;10.174;2022-11-15T13:06:39;20.50;45.50
3504;DHT22;1766;53.490;10.174;2022-11-15T13:08:47;20.50;45.50
3504;DHT22;1766;53.490;10.174;2022-11-15T13:10:52;20.60;45.50
3504;DHT22;1766;53.490;10.174;2022-11-15T13:12:56;20.50;45.20
3504;DHT22;1766;53.490;10.174;2022-11-15T13:14:59;20.50;45.50
3504;DHT22;1766;53.490;10.174;2022-11-15T13:17:02;20.50;45.40
3504;DHT22;1766;53.490;10.174;2022-11-15T13:19:09;20.50;45.30
3504;DHT22;1766;53.490;10.174;2022-11-15T13:21:21;20.50;45.40
3504;DHT22;1766;53.490;10.174;2022-11-15T13:23:38;20.40;45.20
3504;DHT22;1766;53.490;10.174;2022-11-15T13:25:48;20.50;45.10
3504;DHT22;1766;53.490;10.174;2022-11-15T13:27:58;20.40;45.30
3504;DHT22;1766;53.490;10.174;2022-11-15T13:30:03;20.40;45.20
3504;DHT22;1766;53.490;10.174;2022-11-15T13:32:11;20.40;45.70